createdAt,value
2018-05-06T00:01:24.759Z,3.80
2018-05-06T00:04:28.039Z,3.73
2018-05-06T00:07:31.575Z,3.60
2018-05-06T00:10:34.847Z,3.20
2018-05-06T00:13:38.025Z,3.57
2018-05-06T00:16:41.311Z,2.97
2018-05-06T00:19:44.516Z,3.13
2018-05-06T00:22:47.774Z,3.33
2018-05-06T00:25:51.086Z,2.97
2018-05-06T00:28:54.304Z,3.10
2018-05-06T00:31:57.562Z,3.23
2018-05-06T00:35:00.763Z,2.93
2018-05-06T00:38:04.044Z,2.60
2018-05-06T00:41:08.132Z,3.03
2018-05-06T00:44:11.315Z,3.10
2018-05-06T00:47:14.570Z,2.90
2018-05-06T00:50:17.762Z,2.70
2018-05-06T00:53:22.154Z,2.93
2018-05-06T00:56:25.355Z,3.20
2018-05-06T00:59:28.618Z,3.37
2018-05-06T01:02:31.881Z,3.00
2018-05-06T01:05:35.417Z,3.27
2018-05-06T01:08:38.671Z,2.90
2018-05-06T01:11:41.907Z,3.10
2018-05-06T01:14:45.157Z,2.63
2018-05-06T01:17:48.350Z,3.30
2018-05-06T01:20:51.607Z,3.10
2018-05-06T01:23:54.888Z,3.03
2018-05-06T01:26:58.093Z,3.67
2018-05-06T01:30:01.383Z,3.40
2018-05-06T01:33:04.592Z,3.33
2018-05-06T01:36:07.855Z,3.23
2018-05-06T01:39:11.045Z,3.47
2018-05-06T01:42:14.314Z,3.30
2018-05-06T01:45:17.568Z,3.20
2018-05-06T01:48:20.773Z,3.27
2018-05-06T01:51:24.032Z,3.33
2018-05-06T01:54:27.219Z,3.43
2018-05-06T01:57:30.486Z,3.47
2018-05-06T02:00:33.846Z,3.43
2018-05-06T02:03:37.082Z,3.67
2018-05-06T02:06:40.341Z,3.50
2018-05-06T02:09:43.554Z,3.20
2018-05-06T02:12:46.813Z,3.97
2018-05-06T02:15:50.005Z,3.80
2018-05-06T02:18:53.272Z,3.53
2018-05-06T02:21:56.526Z,3.37
2018-05-06T02:24:59.731Z,3.33
2018-05-06T02:28:03.016Z,3.60
2018-05-06T02:31:06.221Z,3.47
2018-05-06T02:34:09.515Z,3.33
2018-05-06T02:37:12.817Z,3.33
2018-05-06T02:40:16.018Z,4.00
2018-05-06T02:43:19.286Z,3.67
2018-05-06T02:46:22.517Z,3.67
2018-05-06T02:49:25.786Z,3.60
2018-05-06T02:52:28.990Z,3.63
2018-05-06T02:55:33.193Z,3.00
2018-05-06T02:58:36.456Z,3.20
2018-05-06T03:01:39.696Z,3.30
2018-05-06T03:04:42.990Z,3.00
2018-05-06T03:07:46.213Z,3.27
2018-05-06T03:10:49.507Z,3.43
2018-05-06T03:13:52.752Z,3.13
2018-05-06T03:16:55.996Z,3.00
2018-05-06T03:19:59.251Z,3.43
2018-05-06T03:23:02.459Z,2.83
2018-05-06T03:26:07.770Z,3.07
2018-05-06T03:29:11.574Z,3.03
2018-05-06T03:32:14.836Z,3.07
2018-05-06T03:35:18.117Z,3.30
2018-05-06T03:38:21.318Z,2.90
2018-05-06T03:41:24.562Z,3.37
2018-05-06T03:44:27.759Z,3.60
2018-05-06T03:47:31.000Z,3.10
2018-05-06T03:50:34.267Z,2.97
2018-05-06T03:53:37.459Z,3.83
2018-05-06T03:57:01.374Z,2.90
2018-05-06T04:00:16.293Z,3.13
2018-05-06T04:03:19.541Z,2.60
2018-05-06T04:06:22.836Z,2.83
2018-05-06T04:09:27.030Z,3.03
2018-05-06T04:12:30.283Z,3.40
2018-05-06T04:15:33.481Z,3.20
2018-05-06T04:18:36.734Z,3.00
2018-05-06T04:21:39.930Z,2.90
2018-05-06T04:24:43.189Z,2.57
2018-05-06T04:27:46.456Z,2.90
2018-05-06T04:30:49.710Z,2.80
2018-05-06T04:33:52.969Z,3.10
2018-05-06T04:36:56.152Z,3.10
2018-05-06T04:39:59.449Z,3.13
2018-05-06T04:43:02.649Z,2.77
2018-05-06T04:46:06.240Z,2.80
2018-05-06T04:49:09.516Z,2.90
2018-05-06T04:52:12.708Z,3.13
2018-05-06T04:55:15.984Z,3.20
2018-05-06T04:58:19.167Z,2.63
2018-05-06T05:01:22.457Z,3.37
2018-05-06T05:04:25.648Z,3.00
2018-05-06T05:07:28.902Z,3.47
2018-05-06T05:10:32.152Z,2.80
2018-05-06T05:13:35.335Z,2.80
2018-05-06T05:16:38.593Z,2.53
2018-05-06T05:19:41.786Z,2.97
2018-05-06T05:22:45.046Z,2.80
2018-05-06T05:25:48.324Z,2.97
2018-05-06T05:28:51.530Z,2.87
2018-05-06T05:31:54.804Z,3.17
2018-05-06T05:34:58.015Z,3.27
2018-05-06T05:38:01.277Z,3.27
2018-05-06T05:41:04.474Z,3.13
2018-05-06T05:44:07.727Z,2.93
2018-05-06T05:47:11.000Z,2.83
2018-05-06T05:50:14.209Z,3.10
2018-05-06T05:53:17.472Z,3.20
2018-05-06T05:56:20.677Z,3.37
2018-05-06T05:59:23.932Z,3.00
2018-05-06T06:02:27.123Z,2.80
2018-05-06T06:05:30.408Z,3.20
2018-05-06T06:08:33.688Z,3.00
2018-05-06T06:11:36.884Z,2.80
2018-05-06T06:14:40.143Z,2.83
2018-05-06T06:17:43.330Z,3.23
2018-05-06T06:20:46.602Z,2.90
2018-05-06T06:23:49.801Z,3.20
2018-05-06T06:26:53.074Z,3.43
2018-05-06T06:29:56.337Z,3.83
2018-05-06T06:32:59.565Z,3.30
2018-05-06T06:36:02.865Z,3.47
2018-05-06T06:39:06.134Z,3.90
2018-05-06T06:42:09.397Z,4.03
2018-05-06T06:45:12.598Z,3.50
2018-05-06T06:48:15.871Z,3.83
2018-05-06T06:51:19.127Z,3.40
2018-05-06T06:54:22.315Z,3.60
2018-05-06T06:57:25.620Z,3.30
2018-05-06T07:00:28.815Z,3.27
2018-05-06T07:03:32.068Z,5.37
2018-05-06T07:06:35.277Z,4.10
2018-05-06T07:09:38.527Z,2.37
2018-05-06T07:12:41.790Z,2.50
2018-05-06T07:15:44.981Z,2.73
2018-05-06T07:18:48.240Z,2.63
2018-05-06T07:21:51.432Z,2.63
2018-05-06T07:24:54.698Z,2.50
2018-05-06T07:27:57.959Z,2.37
2018-05-06T07:31:01.139Z,2.53
2018-05-06T07:34:04.393Z,2.33
2018-05-06T07:37:07.585Z,2.13
2018-05-06T07:40:10.842Z,2.33
2018-05-06T07:43:14.031Z,2.30
2018-05-06T07:46:17.303Z,2.17
2018-05-06T07:49:20.556Z,2.43
2018-05-06T07:52:23.755Z,2.00
2018-05-06T07:55:27.007Z,1.87
2018-05-06T07:58:30.212Z,1.90
2018-05-06T08:01:33.603Z,2.37
2018-05-06T08:04:36.875Z,2.20
2018-05-06T08:07:40.068Z,2.27
2018-05-06T08:10:43.379Z,2.07
2018-05-06T08:13:46.583Z,2.10
2018-05-06T08:16:49.833Z,2.00
2018-05-06T08:19:53.040Z,1.90
2018-05-06T08:22:56.318Z,2.10
2018-05-06T08:25:59.612Z,1.87
2018-05-06T08:29:02.818Z,1.83
2018-05-06T08:32:06.076Z,1.87
2018-05-06T08:35:09.285Z,1.83
2018-05-06T08:38:12.556Z,2.00
2018-05-06T08:41:15.815Z,1.67
2018-05-06T08:44:19.003Z,1.70
2018-05-06T08:47:22.270Z,1.90
2018-05-06T08:50:25.466Z,1.93
2018-05-06T08:53:28.725Z,2.10
2018-05-06T08:56:31.996Z,1.53
2018-05-06T08:59:35.203Z,1.57
2018-05-06T09:02:38.504Z,1.73
2018-05-06T09:05:41.705Z,1.80
2018-05-06T09:08:44.963Z,1.40
2018-05-06T09:11:48.146Z,1.60
2018-05-06T09:14:51.420Z,1.50
2018-05-06T09:17:54.610Z,1.57
2018-05-06T09:20:57.885Z,1.50
2018-05-06T09:24:01.149Z,1.70
2018-05-06T09:27:04.358Z,1.80
2018-05-06T09:30:07.617Z,1.67
2018-05-06T09:33:10.804Z,1.83
2018-05-06T09:36:14.054Z,1.50
2018-05-06T09:39:17.324Z,1.80
2018-05-06T09:42:20.518Z,1.93
2018-05-06T09:45:23.783Z,1.60
2018-05-06T09:48:26.985Z,1.40
2018-05-06T09:51:30.239Z,1.30
2018-05-06T09:54:33.510Z,1.63
2018-05-06T09:57:36.778Z,1.70
2018-05-06T10:00:40.028Z,1.53
2018-05-06T10:03:43.228Z,1.43
2018-05-06T10:06:46.526Z,1.50
2018-05-06T10:09:49.722Z,1.80
2018-05-06T10:12:52.997Z,1.67
2018-05-06T10:15:56.371Z,1.60
2018-05-06T10:18:59.541Z,1.73
2018-05-06T10:22:02.804Z,1.73
2018-05-06T10:25:06.014Z,1.67
2018-05-06T10:28:09.280Z,2.10
2018-05-06T10:31:12.562Z,1.97
2018-05-06T10:34:15.838Z,1.80
2018-05-06T10:37:19.095Z,1.80
2018-05-06T10:40:22.296Z,1.77
2018-05-06T10:43:25.551Z,1.60
2018-05-06T10:46:28.757Z,2.00
2018-05-06T10:49:32.014Z,1.80
2018-05-06T10:52:35.290Z,2.37
2018-05-06T10:55:38.490Z,1.70
2018-05-06T10:58:41.755Z,1.83
2018-05-06T11:01:44.955Z,2.07
2018-05-06T11:04:48.225Z,2.13
2018-05-06T11:07:51.418Z,1.87
2018-05-06T11:10:54.683Z,2.17
2018-05-06T11:13:57.965Z,1.97
2018-05-06T11:17:01.167Z,1.80
2018-05-06T11:20:04.484Z,2.37
2018-05-06T11:23:07.709Z,2.00
2018-05-06T11:26:11.038Z,2.47
2018-05-06T11:29:14.285Z,1.90
2018-05-06T11:32:17.585Z,2.27
2018-05-06T11:35:20.834Z,1.87
2018-05-06T11:38:24.022Z,2.57
2018-05-06T11:41:27.289Z,2.03
2018-05-06T11:44:30.569Z,2.27
2018-05-06T11:47:33.770Z,1.90
2018-05-06T11:50:37.037Z,2.13
2018-05-06T11:53:40.234Z,2.10
2018-05-06T11:56:43.514Z,1.80
2018-05-06T11:59:46.707Z,2.30
2018-05-06T12:02:49.959Z,1.97
2018-05-06T12:05:53.271Z,2.47
2018-05-06T12:08:56.507Z,2.33
2018-05-06T12:11:59.824Z,1.83
2018-05-06T12:15:03.019Z,2.27
2018-05-06T12:18:06.286Z,2.03
2018-05-06T12:21:09.491Z,2.10
2018-05-06T12:24:12.745Z,2.25
2018-05-06T12:27:16.042Z,2.58
2018-05-06T12:30:19.254Z,2.30
2018-05-06T12:33:22.538Z,1.73
2018-05-06T12:36:25.739Z,1.93
2018-05-06T12:39:29.002Z,1.90
2018-05-06T12:42:32.336Z,2.27
2018-05-06T12:45:35.531Z,2.00
2018-05-06T12:48:38.791Z,1.90
2018-05-06T12:51:41.986Z,1.97
2018-05-06T12:54:45.303Z,1.95
2018-05-06T12:57:48.499Z,1.70
2018-05-06T13:00:51.761Z,1.90
2018-05-06T13:03:55.016Z,1.70
2018-05-06T13:06:58.209Z,1.75
2018-05-06T13:10:01.470Z,1.60
2018-05-06T13:13:04.702Z,1.70
2018-05-06T13:16:07.969Z,1.80
2018-05-06T13:19:11.179Z,1.70
2018-05-06T13:22:14.680Z,1.87
2018-05-06T13:25:17.942Z,1.70
2018-05-06T13:28:21.215Z,1.90
2018-05-06T13:31:24.472Z,2.25
2018-05-06T13:34:27.725Z,1.90
2018-05-06T13:37:30.980Z,1.87
2018-05-06T13:40:34.335Z,2.40
2018-05-06T13:43:37.590Z,1.70
2018-05-06T13:46:40.861Z,1.55
2018-05-06T13:49:44.099Z,2.00
2018-05-06T13:52:47.378Z,1.85
2018-05-06T13:55:50.576Z,2.00
2018-05-06T13:58:53.828Z,1.85
2018-05-06T14:01:57.091Z,1.80
2018-05-06T14:05:00.289Z,1.98
2018-05-06T14:08:03.558Z,1.48
2018-05-06T14:11:06.759Z,1.48
2018-05-06T14:14:10.019Z,1.92
2018-05-06T14:17:13.240Z,1.98
2018-05-06T14:20:16.516Z,1.50
2018-05-06T14:23:19.782Z,1.62
2018-05-06T14:26:22.980Z,1.60
2018-05-06T14:29:26.277Z,1.50
2018-05-06T14:32:29.469Z,1.45
2018-05-06T14:35:32.732Z,1.42
2018-05-06T14:38:35.990Z,1.60
2018-05-06T14:41:39.196Z,1.58
2018-05-06T14:44:42.472Z,1.58
2018-05-06T14:47:57.510Z,1.08
2018-05-06T14:51:00.767Z,1.62
2018-05-06T14:54:04.083Z,1.42
2018-05-06T14:57:07.288Z,1.52
2018-05-06T15:00:10.635Z,1.40
2018-05-06T15:03:15.884Z,1.65
2018-05-06T15:06:20.608Z,1.30
2018-05-06T15:09:31.624Z,1.30
2018-05-06T15:12:40.722Z,1.50
2018-05-06T15:15:47.458Z,1.30
2018-05-06T15:18:52.427Z,1.12
2018-05-06T15:21:59.008Z,1.23
2018-05-06T15:25:11.831Z,1.20
2018-05-06T15:28:18.945Z,1.40
2018-05-06T15:31:39.142Z,1.30
2018-05-06T15:34:42.342Z,1.10
2018-05-06T15:37:50.233Z,1.37
2018-05-06T15:40:53.616Z,1.45
2018-05-06T15:43:57.353Z,1.50
2018-05-06T15:47:13.056Z,1.50
2018-05-06T15:50:16.361Z,1.48
2018-05-06T15:53:19.833Z,1.20
2018-05-06T15:56:28.056Z,1.37
2018-05-06T15:59:46.008Z,1.62
2018-05-06T16:03:01.749Z,1.40
2018-05-06T16:06:04.976Z,1.60
2018-05-06T16:09:16.432Z,1.83
2018-05-06T16:12:19.651Z,1.60
2018-05-06T16:15:23.113Z,1.40
2018-05-06T16:18:27.345Z,1.60
2018-05-06T16:21:40.926Z,1.60
2018-05-06T16:24:50.534Z,1.50
2018-05-06T16:27:54.646Z,1.70
2018-05-06T16:30:57.918Z,1.45
2018-05-06T16:34:01.119Z,1.90
2018-05-06T16:37:04.386Z,1.70
2018-05-06T16:40:14.163Z,1.92
2018-05-06T16:43:20.054Z,1.60
2018-05-06T16:46:24.995Z,1.80
2018-05-06T16:49:34.450Z,1.80
2018-05-06T16:52:38.121Z,2.05
2018-05-06T16:55:42.711Z,1.67
2018-05-06T16:58:46.725Z,1.95
2018-05-06T17:01:50.019Z,2.10
2018-05-06T17:04:53.411Z,1.70
2018-05-06T17:07:56.711Z,2.00
2018-05-06T17:11:00.031Z,2.42
2018-05-06T17:14:03.244Z,2.65
2018-05-06T17:17:06.698Z,1.62
2018-05-06T17:20:13.240Z,1.70
2018-05-06T17:23:17.021Z,1.83
2018-05-06T17:26:20.328Z,1.77
2018-05-06T17:29:23.542Z,1.65
2018-05-06T17:32:26.853Z,1.50
2018-05-06T17:35:30.059Z,1.50
2018-05-06T17:38:33.366Z,1.60
2018-05-06T17:41:36.628Z,1.50
2018-05-06T17:44:40.403Z,1.85
2018-05-06T17:47:43.648Z,2.00
2018-05-06T17:50:50.722Z,1.77
2018-05-06T17:54:01.642Z,1.60
2018-05-06T17:57:04.921Z,1.60
2018-05-06T18:00:08.185Z,1.55
2018-05-06T18:03:11.538Z,1.80
2018-05-06T18:06:16.181Z,2.42
2018-05-06T18:09:19.455Z,1.90
2018-05-06T18:12:22.704Z,1.83
2018-05-06T18:15:25.963Z,1.70
2018-05-06T18:22:02.177Z,1.55
2018-05-06T18:25:13.216Z,1.80
2018-05-06T18:28:16.550Z,1.50
2018-05-06T18:31:19.751Z,1.57
2018-05-06T18:34:33.742Z,1.80
2018-05-06T18:40:58.914Z,1.77
2018-05-06T18:44:03.449Z,1.97
2018-05-06T18:47:06.899Z,1.50
2018-05-06T18:50:10.174Z,1.67
2018-05-06T18:53:13.449Z,1.60
2018-05-06T18:56:16.677Z,1.83
2018-05-06T18:59:19.931Z,1.70
2018-05-06T19:02:23.128Z,1.50
2018-05-06T19:05:26.385Z,1.47
2018-05-06T19:08:29.668Z,1.70
2018-05-06T19:11:32.906Z,1.60
2018-05-06T19:14:36.157Z,1.70
2018-05-06T19:17:39.418Z,1.80
2018-05-06T19:20:42.685Z,1.80
2018-05-06T19:23:45.882Z,2.20
2018-05-06T19:26:49.167Z,1.90
2018-05-06T19:29:52.430Z,2.00
2018-05-06T19:32:55.652Z,2.30
2018-05-06T19:35:58.938Z,2.20
2018-05-06T19:39:02.138Z,2.10
2018-05-06T19:42:06.167Z,2.37
2018-05-06T19:45:08.650Z,2.63
2018-05-06T19:48:11.917Z,3.13
2018-05-06T19:51:15.220Z,12.50
2018-05-06T19:54:18.412Z,13.30
2018-05-06T19:57:21.678Z,9.80
2018-05-06T20:00:24.875Z,4.73
2018-05-06T20:03:28.143Z,3.10
2018-05-06T20:06:31.438Z,2.87
2018-05-06T20:09:34.655Z,2.40
2018-05-06T20:12:37.934Z,2.17
2018-05-06T20:15:41.124Z,2.80
2018-05-06T20:18:44.389Z,3.63
2018-05-06T20:21:47.677Z,3.53
2018-05-06T20:24:50.879Z,3.00
2018-05-06T20:27:54.143Z,3.27
2018-05-06T20:30:57.341Z,2.70
2018-05-06T20:34:00.605Z,2.43
2018-05-06T20:37:03.806Z,2.57
2018-05-06T20:40:07.086Z,2.93
2018-05-06T20:43:10.362Z,2.60
2018-05-06T20:46:13.577Z,2.40
2018-05-06T20:49:16.844Z,2.20
2018-05-06T20:52:20.036Z,2.63
2018-05-06T20:55:23.315Z,2.53
2018-05-06T20:58:26.622Z,1.90
2018-05-06T21:01:29.823Z,2.20
2018-05-06T21:04:33.099Z,2.27
2018-05-06T21:07:36.322Z,2.10
2018-05-06T21:10:39.581Z,2.30
2018-05-06T21:13:42.860Z,2.03
2018-05-06T21:16:46.097Z,2.17
2018-05-06T21:19:49.360Z,2.43
2018-05-06T21:22:52.719Z,2.67
2018-05-06T21:25:55.986Z,2.20
2018-05-06T21:28:59.183Z,2.80
2018-05-06T21:32:02.460Z,3.13
2018-05-06T21:35:05.647Z,3.03
2018-05-06T21:38:08.931Z,2.63
2018-05-06T21:41:12.194Z,2.80
2018-05-06T21:44:15.395Z,2.60
2018-05-06T21:47:18.653Z,3.17
2018-05-06T21:50:21.859Z,3.17
2018-05-06T21:53:25.121Z,2.57
2018-05-06T21:56:28.407Z,2.53
2018-05-06T21:59:31.607Z,5.07
2018-05-06T22:02:34.883Z,12.37
2018-05-06T22:05:38.101Z,6.10
2018-05-06T22:08:41.386Z,5.30
2018-05-06T22:11:44.622Z,7.67
2018-05-06T22:14:47.902Z,7.97
2018-05-06T22:17:51.165Z,5.80
2018-05-06T22:20:54.366Z,4.83
2018-05-06T22:23:57.646Z,3.67
2018-05-06T22:27:00.874Z,4.07
2018-05-06T22:30:04.203Z,3.70
2018-05-06T22:33:07.478Z,3.47
2018-05-06T22:36:10.670Z,3.20
2018-05-06T22:39:13.955Z,3.07
2018-05-06T22:42:17.142Z,3.43
2018-05-06T22:45:20.405Z,3.17
2018-05-06T22:48:24.219Z,2.73
2018-05-06T22:51:27.509Z,3.27
2018-05-06T22:54:30.794Z,2.93
2018-05-06T22:57:34.039Z,2.83
2018-05-06T23:00:37.311Z,2.87
2018-05-06T23:03:40.555Z,2.90
2018-05-06T23:06:43.818Z,2.23
2018-05-06T23:09:47.025Z,2.77
2018-05-06T23:12:50.288Z,2.67
2018-05-06T23:15:53.566Z,2.50
2018-05-06T23:18:56.800Z,2.43
2018-05-06T23:22:00.058Z,2.37
2018-05-06T23:25:03.258Z,2.67
2018-05-06T23:28:06.515Z,2.50
2018-05-06T23:31:09.791Z,2.73
2018-05-06T23:34:12.997Z,2.60
2018-05-06T23:37:16.251Z,2.50
2018-05-06T23:40:19.442Z,3.30
2018-05-06T23:43:22.706Z,2.60
2018-05-06T23:46:25.908Z,2.67
2018-05-06T23:49:29.188Z,2.97
2018-05-06T23:52:32.475Z,2.57
2018-05-06T23:55:35.668Z,2.70
2018-05-06T23:58:38.926Z,2.50
